sensor_id;sensor_type;location;lat;lon;timestamp;pressure;altitude;pressure_sealevel;temperature;humidity
13367;BME280;6752;52.612;13.630;2023-05-24T00:00:13;101078.19;;;10.88;100.00
13367;BME280;6752;52.612;13.630;2023-05-24T00:05:15;101084.80;;;10.77;100.00
13367;BME280;6752;52.612;13.630;2023-05-24T00:10:17;101075.27;;;10.73;100.00
13367;BME280;6752;52.612;13.630;2023-05-24T00:15:20;101086.57;;;10.80;100.00
13367;BME280;6752;52.612;13.630;2023-05-24T00:20:22;101089.53;;;10.69;100.00
13367;BME280;6752;52.612;13.630;2023-05-24T00:25:24;101092.05;;;10.74;100.00
13367;BME280;6752;52.612;13.630;2023-05-24T00:30:27;101088.29;;;10.65;100.00
13367;BME280;6752;52.612;13.630;2023-05-24T00:35:29;101093.74;;;10.65;100.00
13367;BME280;6752;52.612;13.630;2023-05-24T00:40:31;101088.59;;;10.56;100.00
13367;BME280;6752;52.612;13.630;2023-05-24T00:45:33;101088.81;;;10.48;100.00
13367;BME280;6752;52.612;13.630;2023-05-24T00:50:36;101092.05;;;10.41;100.00
13367;BME280;6752;52.612;13.630;2023-05-24T00:55:38;101088.13;;;10.13;100.00
13367;BME280;6752;52.612;13.630;2023-05-24T01:00:40;101083.09;;;10.06;100.00
13367;BME280;6752;52.612;13.630;2023-05-24T01:05:42;101086.60;;;9.71;100.00
13367;BME280;6752;52.612;13.630;2023-05-24T01:10:52;101086.14;;;9.67;100.00
13367;BME280;6752;52.612;13.630;2023-05-24T01:16:00;101090.42;;;9.59;100.00
13367;BME280;6752;52.612;13.630;2023-05-24T01:26:41;101098.14;;;9.25;100.00
13367;BME280;6752;52.612;13.630;2023-05-24T01:31:39;101096.79;;;9.07;100.00
13367;BME280;6752;52.612;13.630;2023-05-24T01:36:41;101098.02;;;9.02;100.00
13367;BME280;6752;52.612;13.630;2023-05-24T01:42:03;101101.43;;;8.79;100.00
13367;BME280;6752;52.612;13.630;2023-05-24T01:52:26;101104.36;;;8.67;100.00
13367;BME280;6752;52.612;13.630;2023-05-24T01:57:26;101111.63;;;8.60;100.00
13367;BME280;6752;52.612;13.630;2023-05-24T02:02:28;101115.23;;;8.67;100.00
13367;BME280;6752;52.612;13.630;2023-05-24T02:07:30;101115.09;;;8.61;100.00
13367;BME280;6752;52.612;13.630;2023-05-24T02:12:33;101110.45;;;8.72;100.00
13367;BME280;6752;52.612;13.630;2023-05-24T02:17:35;101107.20;;;8.83;100.00
13367;BME280;6752;52.612;13.630;2023-05-24T02:22:37;101107.58;;;8.94;100.00
13367;BME280;6752;52.612;13.630;2023-05-24T02:27:40;101108.84;;;9.12;100.00
13367;BME280;6752;52.612;13.630;2023-05-24T02:32:46;101102.08;;;9.22;100.00
13367;BME280;6752;52.612;13.630;2023-05-24T02:37:45;101108.33;;;9.16;100.00
13367;BME280;6752;52.612;13.630;2023-05-24T02:42:47;101101.01;;;9.37;100.00
13367;BME280;6752;52.612;13.630;2023-05-24T02:47:49;101097.14;;;9.39;100.00
13367;BME280;6752;52.612;13.630;2023-05-24T02:52:52;101092.24;;;9.45;100.00
13367;BME280;6752;52.612;13.630;2023-05-24T02:57:54;101099.05;;;9.45;100.00
13367;BME280;6752;52.612;13.630;2023-05-24T03:02:56;101102.22;;;9.49;100.00
13367;BME280;6752;52.612;13.630;2023-05-24T03:07:59;101100.77;;;9.53;100.00
13367;BME280;6752;52.612;13.630;2023-05-24T03:13:01;101103.20;;;9.62;100.00
13367;BME280;6752;52.612;13.630;2023-05-24T03:18:03;101109.22;;;9.71;100.00
13367;BME280;6752;52.612;13.630;2023-05-24T03:23:06;101105.77;;;9.73;100.00
13367;BME280;6752;52.612;13.630;2023-05-24T03:28:08;101103.69;;;9.85;100.00
13367;BME280;6752;52.612;13.630;2023-05-24T03:33:10;101105.58;;;9.91;100.00
13367;BME280;6752;52.612;13.630;2023-05-24T03:38:13;101109.91;;;9.99;100.00
13367;BME280;6752;52.612;13.630;2023-05-24T03:43:15;101117.66;;;10.06;100.00
13367;BME280;6752;52.612;13.630;2023-05-24T03:48:18;101117.98;;;10.10;100.00
13367;BME280;6752;52.612;13.630;2023-05-24T03:53:20;101126.11;;;10.24;100.00
13367;BME280;6752;52.612;13.630;2023-05-24T03:58:22;101128.84;;;10.31;100.00
13367;BME280;6752;52.612;13.630;2023-05-24T04:03:25;101130.44;;;10.42;100.00
13367;BME280;6752;52.612;13.630;2023-05-24T04:08:27;101134.19;;;10.65;100.00
13367;BME280;6752;52.612;13.630;2023-05-24T04:13:29;101133.78;;;10.74;100.00
13367;BME280;6752;52.612;13.630;2023-05-24T04:18:32;101134.41;;;10.89;100.00
13367;BME280;6752;52.612;13.630;2023-05-24T04:23:34;101136.37;;;10.88;100.00
13367;BME280;6752;52.612;13.630;2023-05-24T04:28:44;101138.99;;;10.99;100.00
13367;BME280;6752;52.612;13.630;2023-05-24T04:33:47;101139.08;;;11.15;100.00
13367;BME280;6752;52.612;13.630;2023-05-24T04:38:49;101147.89;;;11.17;100.00
13367;BME280;6752;52.612;13.630;2023-05-24T04:43:51;101149.24;;;11.10;100.00
13367;BME280;6752;52.612;13.630;2023-05-24T04:48:53;101153.56;;;11.05;100.00
13367;BME280;6752;52.612;13.630;2023-05-24T04:53:56;101160.84;;;11.31;100.00
13367;BME280;6752;52.612;13.630;2023-05-24T04:58:58;101165.95;;;11.47;100.00
13367;BME280;6752;52.612;13.630;2023-05-24T05:04:01;101175.98;;;11.27;100.00
13367;BME280;6752;52.612;13.630;2023-05-24T05:09:03;101174.84;;;11.61;100.00
13367;BME280;6752;52.612;13.630;2023-05-24T05:14:05;101181.23;;;11.64;100.00
13367;BME280;6752;52.612;13.630;2023-05-24T05:19:08;101187.28;;;11.73;98.75
13367;BME280;6752;52.612;13.630;2023-05-24T05:24:10;101192.85;;;11.79;97.85
13367;BME280;6752;52.612;13.630;2023-05-24T05:29:12;101192.73;;;11.83;95.35
13367;BME280;6752;52.612;13.630;2023-05-24T05:34:15;101195.77;;;11.90;94.19
13367;BME280;6752;52.612;13.630;2023-05-24T05:39:17;101209.63;;;11.92;92.88
13367;BME280;6752;52.612;13.630;2023-05-24T05:44:19;101206.52;;;12.01;91.04
13367;BME280;6752;52.612;13.630;2023-05-24T05:49:22;101208.61;;;12.09;91.63
13367;BME280;6752;52.612;13.630;2023-05-24T05:54:24;101210.17;;;12.26;92.81
13367;BME280;6752;52.612;13.630;2023-05-24T05:59:26;101221.08;;;12.14;89.97
13367;BME280;6752;52.612;13.630;2023-05-24T06:04:29;101226.47;;;12.31;90.18
13367;BME280;6752;52.612;13.630;2023-05-24T06:09:31;101218.92;;;12.23;90.17
13367;BME280;6752;52.612;13.630;2023-05-24T06:14:33;101232.70;;;12.22;90.43
13367;BME280;6752;52.612;13.630;2023-05-24T06:19:36;101233.91;;;12.48;89.85
13367;BME280;6752;52.612;13.630;2023-05-24T06:24:38;101241.88;;;12.56;89.25
13367;BME280;6752;52.612;13.630;2023-05-24T06:29:41;101243.52;;;12.73;86.06
13367;BME280;6752;52.612;13.630;2023-05-24T06:34:43;101249.06;;;13.07;85.00
13367;BME280;6752;52.612;13.630;2023-05-24T06:39:45;101253.05;;;13.45;84.77
13367;BME280;6752;52.612;13.630;2023-05-24T06:44:48;101258.98;;;13.55;84.98
13367;BME280;6752;52.612;13.630;2023-05-24T06:49:50;101265.33;;;13.61;80.64
13367;BME280;6752;52.612;13.630;2023-05-24T06:54:53;101270.73;;;13.49;82.28
13367;BME280;6752;52.612;13.630;2023-05-24T06:59:54;101263.66;;;13.69;79.65
13367;BME280;6752;52.612;13.630;2023-05-24T07:04:56;101277.87;;;13.81;80.11
13367;BME280;6752;52.612;13.630;2023-05-24T07:09:59;101273.77;;;15.25;75.33
13367;BME280;6752;52.612;13.630;2023-05-24T07:15:01;101268.17;;;15.79;74.49
13367;BME280;6752;52.612;13.630;2023-05-24T07:20:03;101277.33;;;15.88;70.97
13367;BME280;6752;52.612;13.630;2023-05-24T07:25:06;101277.11;;;16.23;69.90
13367;BME280;6752;52.612;13.630;2023-05-24T07:30:08;101283.64;;;15.82;68.44
13367;BME280;6752;52.612;13.630;2023-05-24T07:35:10;101275.20;;;16.52;67.73
13367;BME280;6752;52.612;13.630;2023-05-24T07:40:16;101276.89;;;17.38;65.76
13367;BME280;6752;52.612;13.630;2023-05-24T07:45:22;101284.92;;;17.00;64.18
13367;BME280;6752;52.612;13.630;2023-05-24T07:50:20;101285.52;;;17.69;62.64
13367;BME280;6752;52.612;13.630;2023-05-24T07:55:23;101290.27;;;16.41;64.22
13367;BME280;6752;52.612;13.630;2023-05-24T08:00:25;101303.81;;;16.37;64.90
13367;BME280;6752;52.612;13.630;2023-05-24T08:05:27;101300.31;;;16.76;62.87
13367;BME280;6752;52.612;13.630;2023-05-24T08:10:30;101302.63;;;16.01;66.02
13367;BME280;6752;52.612;13.630;2023-05-24T08:15:32;101310.06;;;16.61;64.93
13367;BME280;6752;52.612;13.630;2023-05-24T08:20:34;101310.86;;;16.73;65.89
13367;BME280;6752;52.612;13.630;2023-05-24T08:25:37;101313.52;;;16.34;64.92
13367;BME280;6752;52.612;13.630;2023-05-24T08:30:39;101312.33;;;17.15;61.56
13367;BME280;6752;52.612;13.630;2023-05-24T08:35:42;101320.30;;;16.92;62.18
13367;BME280;6752;52.612;13.630;2023-05-24T08:40:44;101318.05;;;16.49;63.39
13367;BME280;6752;52.612;13.630;2023-05-24T08:45:46;101323.64;;;15.64;62.29
13367;BME280;6752;52.612;13.630;2023-05-24T08:50:49;101323.42;;;16.29;64.65
13367;BME280;6752;52.612;13.630;2023-05-24T08:55:51;101337.41;;;16.13;66.69
13367;BME280;6752;52.612;13.630;2023-05-24T09:00:53;101347.72;;;15.39;67.24
13367;BME280;6752;52.612;13.630;2023-05-24T09:05:55;101347.11;;;16.10;65.21
13367;BME280;6752;52.612;13.630;2023-05-24T09:10:58;101354.29;;;15.64;64.73
13367;BME280;6752;52.612;13.630;2023-05-24T09:16:00;101342.30;;;16.06;64.82
13367;BME280;6752;52.612;13.630;2023-05-24T09:21:02;101338.16;;;15.53;62.32
13367;BME280;6752;52.612;13.630;2023-05-24T09:26:07;101353.56;;;15.75;64.11
13367;BME280;6752;52.612;13.630;2023-05-24T09:31:10;101348.98;;;15.45;61.61
13367;BME280;6752;52.612;13.630;2023-05-24T09:36:12;101353.81;;;16.28;63.01
13367;BME280;6752;52.612;13.630;2023-05-24T09:41:19;101349.53;;;16.21;64.17
13367;BME280;6752;52.612;13.630;2023-05-24T09:46:17;101359.78;;;16.31;64.60
13367;BME280;6752;52.612;13.630;2023-05-24T09:51:20;101354.27;;;15.99;63.35
13367;BME280;6752;52.612;13.630;2023-05-24T09:56:22;101362.98;;;16.20;65.90
13367;BME280;6752;52.612;13.630;2023-05-24T10:01:24;101358.38;;;16.23;63.54
13367;BME280;6752;52.612;13.630;2023-05-24T10:06:27;101366.28;;;16.19;64.84
13367;BME280;6752;52.612;13.630;2023-05-24T10:11:29;101371.45;;;16.30;64.51
13367;BME280;6752;52.612;13.630;2023-05-24T10:16:31;101377.73;;;16.39;64.53
13367;BME280;6752;52.612;13.630;2023-05-24T10:21:34;101368.41;;;17.48;63.13
13367;BME280;6752;52.612;13.630;2023-05-24T10:26:36;101372.88;;;17.13;61.21
13367;BME280;6752;52.612;13.630;2023-05-24T10:31:39;101372.42;;;17.32;61.19
13367;BME280;6752;52.612;13.630;2023-05-24T10:36:41;101370.06;;;19.18;60.29
13367;BME280;6752;52.612;13.630;2023-05-24T10:41:43;101362.14;;;20.66;57.28
13367;BME280;6752;52.612;13.630;2023-05-24T10:47:07;101373.50;;;18.78;56.38
13367;BME280;6752;52.612;13.630;2023-05-24T10:52:11;101386.16;;;17.38;60.04
13367;BME280;6752;52.612;13.630;2023-05-24T10:57:14;101393.64;;;17.65;61.33
13367;BME280;6752;52.612;13.630;2023-05-24T11:02:16;101383.38;;;18.03;59.01
13367;BME280;6752;52.612;13.630;2023-05-24T11:07:18;101383.55;;;18.65;57.27
13367;BME280;6752;52.612;13.630;2023-05-24T11:12:20;101377.94;;;18.60;55.11
13367;BME280;6752;52.612;13.630;2023-05-24T11:17:23;101365.41;;;19.66;53.36
13367;BME280;6752;52.612;13.630;2023-05-24T11:22:25;101365.59;;;18.65;55.07
13367;BME280;6752;52.612;13.630;2023-05-24T11:27:27;101365.30;;;18.73;56.23
13367;BME280;6752;52.612;13.630;2023-05-24T11:32:30;101375.98;;;18.91;55.06
13367;BME280;6752;52.612;13.630;2023-05-24T11:37:32;101382.39;;;18.42;55.75
13367;BME280;6752;52.612;13.630;2023-05-24T11:42:34;101379.05;;;19.35;56.63
13367;BME280;6752;52.612;13.630;2023-05-24T11:47:37;101372.57;;;19.83;52.70
13367;BME280;6752;52.612;13.630;2023-05-24T11:52:39;101371.07;;;20.31;54.43
13367;BME280;6752;52.612;13.630;2023-05-24T11:57:42;101366.75;;;21.69;51.99
13367;BME280;6752;52.612;13.630;2023-05-24T12:02:44;101372.53;;;21.98;50.22
13367;BME280;6752;52.612;13.630;2023-05-24T12:07:46;101381.27;;;20.73;53.41
13367;BME280;6752;52.612;13.630;2023-05-24T12:12:49;101365.78;;;21.36;50.69
13367;BME280;6752;52.612;13.630;2023-05-24T12:17:51;101361.61;;;21.51;49.84
13367;BME280;6752;52.612;13.630;2023-05-24T12:22:54;101359.11;;;21.75;48.22
13367;BME280;6752;52.612;13.630;2023-05-24T12:27:56;101361.84;;;22.16;46.67
13367;BME280;6752;52.612;13.630;2023-05-24T12:32:58;101388.34;;;19.21;53.21
13367;BME280;6752;52.612;13.630;2023-05-24T12:38:00;101391.98;;;19.27;54.77
13367;BME280;6752;52.612;13.630;2023-05-24T12:43:03;101384.02;;;19.33;53.50
13367;BME280;6752;52.612;13.630;2023-05-24T12:48:04;101381.90;;;19.88;52.73
13367;BME280;6752;52.612;13.630;2023-05-24T12:53:07;101370.47;;;21.28;51.78
13367;BME280;6752;52.612;13.630;2023-05-24T12:58:09;101372.30;;;21.66;50.27
13367;BME280;6752;52.612;13.630;2023-05-24T13:03:11;101372.16;;;22.05;50.95
13367;BME280;6752;52.612;13.630;2023-05-24T13:08:14;101354.53;;;22.78;46.78
13367;BME280;6752;52.612;13.630;2023-05-24T13:13:16;101367.14;;;22.55;48.74
13367;BME280;6752;52.612;13.630;2023-05-24T13:18:18;101370.29;;;23.17;46.52
13367;BME280;6752;52.612;13.630;2023-05-24T13:23:20;101370.92;;;20.27;50.97
13367;BME280;6752;52.612;13.630;2023-05-24T13:28:23;101373.81;;;20.02;51.31
13367;BME280;6752;52.612;13.630;2023-05-24T13:33:25;101381.13;;;20.21;52.74
13367;BME280;6752;52.612;13.630;2023-05-24T13:38:27;101370.62;;;21.70;50.35
13367;BME280;6752;52.612;13.630;2023-05-24T13:43:30;101376.33;;;20.51;50.04
13367;BME280;6752;52.612;13.630;2023-05-24T13:48:32;101377.13;;;21.24;49.98
13367;BME280;6752;52.612;13.630;2023-05-24T13:53:34;101368.11;;;21.26;48.47
13367;BME280;6752;52.612;13.630;2023-05-24T13:58:37;101374.49;;;20.80;50.50
13367;BME280;6752;52.612;13.630;2023-05-24T14:03:39;101368.73;;;20.99;49.22
13367;BME280;6752;52.612;13.630;2023-05-24T14:08:42;101358.36;;;22.27;48.01
13367;BME280;6752;52.612;13.630;2023-05-24T14:13:44;101357.45;;;21.67;48.02
13367;BME280;6752;52.612;13.630;2023-05-24T14:18:46;101368.04;;;20.98;48.43
13367;BME280;6752;52.612;13.630;2023-05-24T14:23:48;101361.45;;;21.93;47.94
13367;BME280;6752;52.612;13.630;2023-05-24T14:28:50;101356.30;;;21.12;47.91
13367;BME280;6752;52.612;13.630;2023-05-24T14:33:53;101355.76;;;20.63;47.85
13367;BME280;6752;52.612;13.630;2023-05-24T14:38:55;101353.35;;;21.00;48.14
13367;BME280;6752;52.612;13.630;2023-05-24T14:43:58;101361.57;;;20.62;49.63
13367;BME280;6752;52.612;13.630;2023-05-24T14:49:00;101377.39;;;20.76;51.26
13367;BME280;6752;52.612;13.630;2023-05-24T14:54:02;101374.87;;;20.62;50.54
13367;BME280;6752;52.612;13.630;2023-05-24T14:59:05;101371.22;;;20.90;51.00
13367;BME280;6752;52.612;13.630;2023-05-24T15:04:07;101378.28;;;20.56;51.70
13367;BME280;6752;52.612;13.630;2023-05-24T15:09:09;101370.90;;;20.43;50.37
13367;BME280;6752;52.612;13.630;2023-05-24T15:14:11;101375.27;;;20.60;52.55
13367;BME280;6752;52.612;13.630;2023-05-24T15:19:13;101368.97;;;21.36;49.87
13367;BME280;6752;52.612;13.630;2023-05-24T15:24:16;101363.94;;;20.69;47.74
13367;BME280;6752;52.612;13.630;2023-05-24T15:29:18;101360.38;;;20.21;48.65
13367;BME280;6752;52.612;13.630;2023-05-24T15:34:20;101365.41;;;20.08;49.86
13367;BME280;6752;52.612;13.630;2023-05-24T15:39:23;101363.88;;;20.88;50.21
13367;BME280;6752;52.612;13.630;2023-05-24T15:44:25;101371.02;;;19.79;50.74
13367;BME280;6752;52.612;13.630;2023-05-24T15:49:27;101363.65;;;19.71;50.33
13367;BME280;6752;52.612;13.630;2023-05-24T15:54:30;101374.19;;;19.31;51.35
13367;BME280;6752;52.612;13.630;2023-05-24T15:59:32;101377.78;;;19.45;50.53
13367;BME280;6752;52.612;13.630;2023-05-24T16:04:34;101372.70;;;19.82;50.45
13367;BME280;6752;52.612;13.630;2023-05-24T16:09:37;101383.84;;;19.42;52.99
13367;BME280;6752;52.612;13.630;2023-05-24T16:14:39;101390.34;;;18.68;53.20
13367;BME280;6752;52.612;13.630;2023-05-24T16:19:42;101384.60;;;18.83;52.51
13367;BME280;6752;52.612;13.630;2023-05-24T16:24:44;101387.59;;;18.79;53.13
13367;BME280;6752;52.612;13.630;2023-05-24T16:29:46;101380.98;;;18.61;52.60
13367;BME280;6752;52.612;13.630;2023-05-24T16:34:49;101385.02;;;18.51;52.83
13367;BME280;6752;52.612;13.630;2023-05-24T16:39:51;101390.03;;;18.35;53.50
13367;BME280;6752;52.612;13.630;2023-05-24T16:44:53;101387.47;;;17.92;54.45
13367;BME280;6752;52.612;13.630;2023-05-24T16:49:55;101391.25;;;18.14;54.40
13367;BME280;6752;52.612;13.630;2023-05-24T16:54:57;101399.58;;;17.57;55.37
13367;BME280;6752;52.612;13.630;2023-05-24T16:59:59;101402.06;;;17.73;56.31
13367;BME280;6752;52.612;13.630;2023-05-24T17:05:02;101395.09;;;17.68;56.21
13367;BME280;6752;52.612;13.630;2023-05-24T17:10:04;101391.86;;;17.57;55.93
13367;BME280;6752;52.612;13.630;2023-05-24T17:15:07;101392.81;;;17.79;57.91
13367;BME280;6752;52.612;13.630;2023-05-24T17:20:09;101389.92;;;17.80;55.10
13367;BME280;6752;52.612;13.630;2023-05-24T17:25:11;101398.52;;;18.00;56.06
13367;BME280;6752;52.612;13.630;2023-05-24T17:30:14;101406.58;;;18.04;58.52
13367;BME280;6752;52.612;13.630;2023-05-24T17:35:16;101406.14;;;17.76;57.84
13367;BME280;6752;52.612;13.630;2023-05-24T17:40:19;101415.53;;;17.55;57.13
13367;BME280;6752;52.612;13.630;2023-05-24T17:45:21;101413.88;;;17.32;59.68
13367;BME280;6752;52.612;13.630;2023-05-24T17:50:23;101417.92;;;17.35;60.18
13367;BME280;6752;52.612;13.630;2023-05-24T17:55:25;101427.13;;;17.04;61.93
13367;BME280;6752;52.612;13.630;2023-05-24T18:00:27;101425.91;;;16.91;63.23
13367;BME280;6752;52.612;13.630;2023-05-24T18:05:29;101426.41;;;16.77;64.25
13367;BME280;6752;52.612;13.630;2023-05-24T18:10:32;101434.52;;;16.63;65.09
13367;BME280;6752;52.612;13.630;2023-05-24T18:15:34;101432.97;;;16.50;66.07
13367;BME280;6752;52.612;13.630;2023-05-24T18:20:36;101447.83;;;16.19;68.08
13367;BME280;6752;52.612;13.630;2023-05-24T18:25:39;101447.59;;;15.92;68.46
13367;BME280;6752;52.612;13.630;2023-05-24T18:30:41;101450.90;;;15.76;68.95
13367;BME280;6752;52.612;13.630;2023-05-24T18:35:44;101460.61;;;15.55;70.17
13367;BME280;6752;52.612;13.630;2023-05-24T18:40:46;101463.00;;;15.51;70.55
13367;BME280;6752;52.612;13.630;2023-05-24T18:45:48;101462.40;;;15.34;71.75
13367;BME280;6752;52.612;13.630;2023-05-24T18:50:51;101473.28;;;15.20;72.82
13367;BME280;6752;52.612;13.630;2023-05-24T18:55:53;101473.94;;;14.76;75.03
13367;BME280;6752;52.612;13.630;2023-05-24T19:00:55;101475.34;;;14.64;75.55
13367;BME280;6752;52.612;13.630;2023-05-24T19:05:58;101482.81;;;14.47;77.28
13367;BME280;6752;52.612;13.630;2023-05-24T19:11:00;101474.60;;;14.41;77.58
13367;BME280;6752;52.612;13.630;2023-05-24T19:16:02;101482.77;;;14.04;78.74
13367;BME280;6752;52.612;13.630;2023-05-24T19:21:05;101492.67;;;14.05;79.24
13367;BME280;6752;52.612;13.630;2023-05-24T19:26:07;101503.51;;;13.97;79.92
13367;BME280;6752;52.612;13.630;2023-05-24T19:31:10;101513.44;;;13.91;80.47
13367;BME280;6752;52.612;13.630;2023-05-24T19:36:12;101514.00;;;13.87;80.58
13367;BME280;6752;52.612;13.630;2023-05-24T19:41:14;101519.42;;;13.81;81.10
13367;BME280;6752;52.612;13.630;2023-05-24T19:46:16;101518.00;;;13.76;82.23
13367;BME280;6752;52.612;13.630;2023-05-24T19:51:18;101519.19;;;13.67;83.28
13367;BME280;6752;52.612;13.630;2023-05-24T19:56:21;101518.94;;;13.60;83.84
13367;BME280;6752;52.612;13.630;2023-05-24T20:01:23;101527.91;;;13.39;84.65
13367;BME280;6752;52.612;13.630;2023-05-24T20:06:25;101529.37;;;13.12;86.99
13367;BME280;6752;52.612;13.630;2023-05-24T20:11:28;101526.43;;;13.10;86.70
13367;BME280;6752;52.612;13.630;2023-05-24T20:16:30;101525.41;;;13.05;87.24
13367;BME280;6752;52.612;13.630;2023-05-24T20:21:32;101532.36;;;12.97;87.90
13367;BME280;6752;52.612;13.630;2023-05-24T20:26:34;101530.75;;;12.73;89.62
13367;BME280;6752;52.612;13.630;2023-05-24T20:31:36;101534.22;;;12.81;86.20
13367;BME280;6752;52.612;13.630;2023-05-24T20:36:39;101538.02;;;12.70;84.37
13367;BME280;6752;52.612;13.630;2023-05-24T20:41:41;101558.05;;;11.95;90.64
13367;BME280;6752;52.612;13.630;2023-05-24T20:46:44;101547.61;;;11.81;90.51
13367;BME280;6752;52.612;13.630;2023-05-24T20:51:46;101550.90;;;12.00;88.47
13367;BME280;6752;52.612;13.630;2023-05-24T20:56:48;101555.95;;;12.00;86.61
13367;BME280;6752;52.612;13.630;2023-05-24T21:01:51;101565.61;;;11.86;86.72
13367;BME280;6752;52.612;13.630;2023-05-24T21:06:53;101558.03;;;11.54;96.95
13367;BME280;6752;52.612;13.630;2023-05-24T21:11:55;101572.41;;;11.49;92.11
13367;BME280;6752;52.612;13.630;2023-05-24T21:16:57;101567.45;;;11.39;97.22
13367;BME280;6752;52.612;13.630;2023-05-24T21:22:00;101578.73;;;11.29;91.84
13367;BME280;6752;52.612;13.630;2023-05-24T21:27:02;101582.91;;;11.01;91.30
13367;BME280;6752;52.612;13.630;2023-05-24T21:32:04;101579.08;;;10.89;90.03
13367;BME280;6752;52.612;13.630;2023-05-24T21:37:07;101589.16;;;10.74;91.83
13367;BME280;6752;52.612;13.630;2023-05-24T21:42:09;101596.45;;;10.53;92.44
13367;BME280;6752;52.612;13.630;2023-05-24T21:47:11;101595.44;;;10.43;91.77
13367;BME280;6752;52.612;13.630;2023-05-24T21:52:14;101595.54;;;10.32;91.27
13367;BME280;6752;52.612;13.630;2023-05-24T21:57:16;101601.52;;;10.13;90.72
13367;BME280;6752;52.612;13.630;2023-05-24T22:02:19;101597.16;;;10.05;90.49
13367;BME280;6752;52.612;13.630;2023-05-24T22:07:21;101605.12;;;9.85;91.00
13367;BME280;6752;52.612;13.630;2023-05-24T22:12:23;101614.56;;;9.75;92.49
13367;BME280;6752;52.612;13.630;2023-05-24T22:17:26;101618.88;;;9.77;93.27
13367;BME280;6752;52.612;13.630;2023-05-24T22:22:28;101615.89;;;9.72;95.26
13367;BME280;6752;52.612;13.630;2023-05-24T22:27:30;101612.61;;;9.51;96.69
13367;BME280;6752;52.612;13.630;2023-05-24T22:32:33;101607.05;;;9.34;97.69
13367;BME280;6752;52.612;13.630;2023-05-24T22:37:35;101619.52;;;9.36;95.77
13367;BME280;6752;52.612;13.630;2023-05-24T22:42:37;101616.38;;;9.21;97.32
13367;BME280;6752;52.612;13.630;2023-05-24T22:47:40;101612.89;;;9.09;100.00
13367;BME280;6752;52.612;13.630;2023-05-24T22:52:42;101624.23;;;8.98;99.83
13367;BME280;6752;52.612;13.630;2023-05-24T22:57:44;101625.38;;;9.03;97.49
13367;BME280;6752;52.612;13.630;2023-05-24T23:02:46;101623.02;;;8.85;100.00
13367;BME280;6752;52.612;13.630;2023-05-24T23:07:48;101619.30;;;8.97;100.00
13367;BME280;6752;52.612;13.630;2023-05-24T23:12:50;101626.34;;;8.84;99.50
13367;BME280;6752;52.612;13.630;2023-05-24T23:17:53;101619.41;;;8.82;99.78
13367;BME280;6752;52.612;13.630;2023-05-24T23:22:55;101612.84;;;8.83;100.00
13367;BME280;6752;52.612;13.630;2023-05-24T23:27:58;101609.27;;;8.98;100.00
13367;BME280;6752;52.612;13.630;2023-05-24T23:33:00;101609.97;;;9.18;100.00
13367;BME280;6752;52.612;13.630;2023-05-24T23:38:02;101598.71;;;9.53;100.00
13367;BME280;6752;52.612;13.630;2023-05-24T23:43:04;101607.56;;;9.77;100.00
13367;BME280;6752;52.612;13.630;2023-05-24T23:48:07;101609.44;;;9.87;100.00
13367;BME280;6752;52.612;13.630;2023-05-24T23:53:09;101607.08;;;10.02;100.00
13367;BME280;6752;52.612;13.630;2023-05-24T23:58:11;101608.16;;;9.94;100.00
